createdAt,value
2022-11-25T00:01:24.958Z,34.85
2022-11-25T00:03:54.349Z,39.53
2022-11-25T00:06:25.642Z,30.55
2022-11-25T00:09:01.600Z,32.65
2022-11-25T00:11:28.695Z,30.40
2022-11-25T00:13:56.688Z,31.90
2022-11-25T00:16:24.908Z,43.25
2022-11-25T00:18:53.542Z,27.38
2022-11-25T00:21:22.924Z,34.92
2022-11-25T00:23:53.655Z,36.17
2022-11-25T00:26:21.858Z,32.00
2022-11-25T00:28:49.990Z,47.65
2022-11-25T00:31:25.696Z,33.05
2022-11-25T00:33:53.030Z,39.85
2022-11-25T00:36:26.342Z,26.75
2022-11-25T00:39:02.422Z,39.63
2022-11-25T00:41:48.088Z,40.75
2022-11-25T00:44:35.760Z,27.48
2022-11-25T00:47:05.399Z,27.98
2022-11-25T00:49:33.163Z,25.90
2022-11-25T00:52:00.221Z,38.83
2022-11-25T00:54:27.201Z,40.72
2022-11-25T00:56:54.279Z,29.58
2022-11-25T00:59:21.637Z,20.95
2022-11-25T01:01:48.722Z,29.70
2022-11-25T01:04:16.772Z,26.30
2022-11-25T01:06:43.921Z,27.48
2022-11-25T01:09:12.563Z,35.70
2022-11-25T01:11:40.023Z,41.03
2022-11-25T01:14:07.805Z,34.83
2022-11-25T01:16:34.963Z,25.05
2022-11-25T01:19:02.572Z,25.38
2022-11-25T01:21:32.475Z,37.17
2022-11-25T01:24:01.462Z,27.98
2022-11-25T01:26:29.908Z,23.33
2022-11-25T01:29:02.161Z,26.50
2022-11-25T01:31:31.673Z,39.55
2022-11-25T01:34:06.365Z,29.17
2022-11-25T01:36:34.250Z,37.63
2022-11-25T01:39:04.466Z,36.05
2022-11-25T01:41:33.361Z,43.78
2022-11-25T01:44:07.844Z,34.80
2022-11-25T01:46:46.678Z,36.78
2022-11-25T01:49:21.779Z,31.08
2022-11-25T01:51:54.678Z,41.70
2022-11-25T01:54:26.183Z,29.40
2022-11-25T01:56:59.201Z,26.20
2022-11-25T01:59:27.745Z,35.55
2022-11-25T02:01:56.319Z,31.17
2022-11-25T02:04:28.032Z,28.10
2022-11-25T02:06:59.506Z,28.67
2022-11-25T02:09:27.559Z,32.60
2022-11-25T02:11:55.358Z,24.20
2022-11-25T02:14:23.457Z,26.08
2022-11-25T02:16:52.337Z,30.17
2022-11-25T02:19:36.384Z,32.95
2022-11-25T02:22:08.194Z,29.20
2022-11-25T02:24:45.158Z,28.60
2022-11-25T02:27:13.716Z,38.65
2022-11-25T02:29:43.943Z,31.95
2022-11-25T02:32:11.045Z,39.42
2022-11-25T02:34:49.341Z,37.22
2022-11-25T02:37:18.840Z,28.98
2022-11-25T02:39:47.422Z,39.55
2022-11-25T02:42:15.924Z,28.02
2022-11-25T02:44:48.306Z,31.25
2022-11-25T02:47:15.779Z,33.33
2022-11-25T02:49:42.777Z,32.60
2022-11-25T02:52:10.581Z,34.92
2022-11-25T02:54:37.810Z,31.00
2022-11-25T02:57:04.927Z,39.40
2022-11-25T02:59:34.246Z,36.72
2022-11-25T03:02:01.415Z,32.38
2022-11-25T03:04:28.607Z,30.73
2022-11-25T03:06:56.328Z,26.65
2022-11-25T03:09:24.685Z,25.77
2022-11-25T03:12:10.237Z,25.63
2022-11-25T03:14:37.586Z,28.42
2022-11-25T03:17:04.800Z,24.52
2022-11-25T03:19:31.823Z,26.25
2022-11-25T03:21:58.783Z,29.23
2022-11-25T03:24:25.833Z,41.40
2022-11-25T03:26:52.898Z,28.48
2022-11-25T03:29:20.033Z,21.88
2022-11-25T03:31:47.646Z,27.15
2022-11-25T03:34:14.796Z,26.60
2022-11-25T03:36:41.827Z,19.17
2022-11-25T03:39:10.008Z,27.77
2022-11-25T03:41:37.935Z,28.92
2022-11-25T03:44:05.246Z,29.33
2022-11-25T03:46:32.883Z,32.05
2022-11-25T03:49:02.575Z,33.38
2022-11-25T03:51:29.857Z,37.25
2022-11-25T03:53:58.652Z,30.83
2022-11-25T03:56:25.736Z,26.88
2022-11-25T03:58:52.816Z,27.45
2022-11-25T04:01:20.595Z,31.52
2022-11-25T04:03:47.747Z,27.90
2022-11-25T04:06:15.907Z,28.55
2022-11-25T04:08:43.644Z,25.48
2022-11-25T04:11:11.037Z,23.88
2022-11-25T04:13:42.848Z,21.55
2022-11-25T04:16:24.791Z,26.67
2022-11-25T04:18:53.020Z,27.13
2022-11-25T04:21:20.073Z,27.05
2022-11-25T04:23:47.319Z,25.50
2022-11-25T04:26:15.449Z,23.17
2022-11-25T04:28:42.629Z,27.83
2022-11-25T04:31:09.887Z,21.63
2022-11-25T04:33:39.943Z,21.38
2022-11-25T04:36:08.164Z,25.10
2022-11-25T04:38:35.369Z,24.80
2022-11-25T04:41:03.980Z,13.30
2022-11-25T04:43:36.271Z,28.38
2022-11-25T04:46:15.691Z,32.20
2022-11-25T04:48:46.612Z,21.13
2022-11-25T04:51:15.417Z,35.20
2022-11-25T04:53:43.913Z,19.85
2022-11-25T04:56:18.387Z,28.05
2022-11-25T04:59:04.517Z,28.63
2022-11-25T05:01:32.101Z,30.05
2022-11-25T05:04:11.258Z,30.90
2022-11-25T05:06:38.817Z,31.15
2022-11-25T05:09:06.742Z,27.23
2022-11-25T05:11:36.437Z,15.60
2022-11-25T05:14:03.777Z,21.10
2022-11-25T05:16:31.301Z,25.10
2022-11-25T05:18:59.120Z,23.05
2022-11-25T05:21:26.579Z,28.55
2022-11-25T05:23:56.108Z,27.50
2022-11-25T05:26:24.575Z,17.85
2022-11-25T05:28:54.058Z,23.77
2022-11-25T05:31:21.138Z,17.42
2022-11-25T05:33:49.112Z,21.08
2022-11-25T05:36:17.454Z,25.65
2022-11-25T05:38:46.700Z,22.30
2022-11-25T05:41:21.604Z,31.83
2022-11-25T05:43:49.889Z,20.17
2022-11-25T05:46:17.231Z,18.65
2022-11-25T05:48:52.993Z,27.27
2022-11-25T05:51:21.023Z,24.40
2022-11-25T05:53:49.150Z,24.50
2022-11-25T05:56:17.604Z,16.02
2022-11-25T05:59:07.821Z,18.48
2022-11-25T06:01:45.637Z,21.60
2022-11-25T06:04:12.961Z,30.02
2022-11-25T06:06:39.985Z,19.80
2022-11-25T06:09:07.827Z,20.35
2022-11-25T06:11:35.423Z,16.95
2022-11-25T06:14:02.392Z,23.10
2022-11-25T06:16:29.469Z,20.15
2022-11-25T06:19:15.524Z,14.55
2022-11-25T06:21:43.258Z,27.02
2022-11-25T06:24:10.239Z,20.83
2022-11-25T06:26:37.359Z,24.35
2022-11-25T06:29:04.451Z,26.10
2022-11-25T06:31:31.519Z,14.43
2022-11-25T06:34:19.195Z,12.57
2022-11-25T06:36:46.353Z,22.02
2022-11-25T06:39:13.485Z,27.00
2022-11-25T06:41:40.544Z,19.83
2022-11-25T06:44:07.493Z,27.75
2022-11-25T06:46:34.619Z,20.73
2022-11-25T06:49:01.690Z,18.77
2022-11-25T06:51:28.942Z,16.88
2022-11-25T06:53:56.036Z,25.25
2022-11-25T06:56:25.834Z,26.60
2022-11-25T06:58:53.919Z,15.90
2022-11-25T07:01:23.699Z,23.92
2022-11-25T07:03:55.862Z,20.45
2022-11-25T07:06:22.959Z,22.00
2022-11-25T07:08:49.959Z,14.00
2022-11-25T07:11:20.062Z,19.40
2022-11-25T07:13:48.289Z,12.20
2022-11-25T07:16:15.567Z,21.33
2022-11-25T07:18:42.890Z,21.75
2022-11-25T07:21:15.201Z,14.27
2022-11-25T07:23:43.781Z,20.48
2022-11-25T07:26:14.071Z,30.25
2022-11-25T07:28:42.176Z,16.80
2022-11-25T07:31:24.422Z,19.80
2022-11-25T07:33:59.574Z,21.67
2022-11-25T07:36:27.573Z,24.42
2022-11-25T07:38:55.052Z,18.75
2022-11-25T07:41:24.141Z,19.05
2022-11-25T07:43:54.028Z,32.47
2022-11-25T07:46:34.708Z,34.72
2022-11-25T07:49:08.314Z,64.85
2022-11-25T07:51:38.596Z,57.60
2022-11-25T07:54:08.297Z,37.75
2022-11-25T07:56:37.364Z,24.05
2022-11-25T07:59:05.776Z,26.55
2022-11-25T08:01:32.835Z,14.50
2022-11-25T08:03:59.882Z,18.10
2022-11-25T08:06:29.465Z,24.63
2022-11-25T08:08:57.742Z,27.13
2022-11-25T08:11:30.420Z,26.50
2022-11-25T08:13:58.821Z,21.52
2022-11-25T08:16:28.033Z,24.08
2022-11-25T08:18:55.611Z,18.58
2022-11-25T08:21:23.150Z,15.93
2022-11-25T08:23:52.450Z,15.23
2022-11-25T08:26:23.637Z,17.02
2022-11-25T08:28:50.778Z,72.85
2022-11-25T08:31:21.539Z,69.05
2022-11-25T08:33:49.843Z,25.70
2022-11-25T08:36:17.665Z,34.13
2022-11-25T08:38:47.003Z,45.38
2022-11-25T08:41:17.723Z,34.53
2022-11-25T08:43:44.784Z,19.50
2022-11-25T08:46:15.299Z,16.40
2022-11-25T08:48:42.438Z,32.08
2022-11-25T08:51:13.100Z,30.67
2022-11-25T08:53:41.405Z,24.70
2022-11-25T08:56:08.788Z,24.52
2022-11-25T08:58:36.319Z,21.85
2022-11-25T09:01:05.348Z,47.72
2022-11-25T09:03:34.295Z,62.42
2022-11-25T09:06:02.533Z,51.95
2022-11-25T09:08:31.096Z,43.30
2022-11-25T09:10:59.437Z,48.47
2022-11-25T09:13:26.805Z,44.15
2022-11-25T09:15:53.859Z,45.97
2022-11-25T09:18:25.542Z,32.75
2022-11-25T09:20:53.460Z,42.47
2022-11-25T09:23:20.512Z,26.25
2022-11-25T09:25:54.641Z,22.63
2022-11-25T09:28:22.892Z,24.98
2022-11-25T09:30:50.379Z,22.58
2022-11-25T09:33:17.569Z,30.38
2022-11-25T09:35:44.653Z,20.20
2022-11-25T09:38:11.673Z,21.63
2022-11-25T09:41:00.897Z,13.77
2022-11-25T09:44:15.945Z,23.65
2022-11-25T09:47:18.497Z,21.00
2022-11-25T09:50:08.662Z,16.13
2022-11-25T09:52:45.945Z,13.80
2022-11-25T09:55:19.754Z,12.73
2022-11-25T09:58:08.353Z,20.02
2022-11-25T10:00:41.720Z,13.02
2022-11-25T10:03:36.258Z,18.95
2022-11-25T10:06:08.064Z,22.95
2022-11-25T10:08:57.826Z,25.08
2022-11-25T10:11:35.789Z,25.25
2022-11-25T10:14:25.907Z,30.15
2022-11-25T10:17:08.036Z,14.43
2022-11-25T10:20:01.485Z,21.67
2022-11-25T10:22:33.761Z,22.27
2022-11-25T10:25:20.435Z,25.92
2022-11-25T10:28:01.087Z,13.15
2022-11-25T10:30:44.180Z,13.13
2022-11-25T10:33:23.356Z,12.65
2022-11-25T10:36:07.983Z,15.90
2022-11-25T10:39:07.073Z,14.75
2022-11-25T10:42:01.714Z,11.95
2022-11-25T10:44:30.144Z,13.18
2022-11-25T10:47:14.390Z,15.68
2022-11-25T10:49:51.823Z,12.77
2022-11-25T10:52:23.379Z,7.03
2022-11-25T10:55:07.670Z,8.95
2022-11-25T10:57:35.409Z,28.40
2022-11-25T11:00:04.994Z,21.30
2022-11-25T11:02:35.169Z,17.15
2022-11-25T11:05:18.192Z,24.05
2022-11-25T11:07:46.734Z,14.13
2022-11-25T11:10:18.656Z,20.33
2022-11-25T11:13:06.640Z,15.07
2022-11-25T11:15:47.179Z,29.75
2022-11-25T11:18:24.104Z,22.85
2022-11-25T11:20:53.955Z,19.50
2022-11-25T11:23:21.235Z,15.23
2022-11-25T11:26:09.589Z,24.75
2022-11-25T11:28:36.810Z,15.68
2022-11-25T11:31:18.624Z,13.82
2022-11-25T11:33:48.493Z,19.08
2022-11-25T11:36:18.321Z,10.90
2022-11-25T11:38:56.637Z,7.82
2022-11-25T11:41:36.276Z,11.48
2022-11-25T11:44:24.010Z,12.70
2022-11-25T11:47:00.334Z,11.45
2022-11-25T11:49:34.573Z,15.98
2022-11-25T11:52:15.696Z,15.13
2022-11-25T11:54:58.304Z,12.90
2022-11-25T11:57:31.181Z,10.40
2022-11-25T12:00:05.780Z,10.52
2022-11-25T12:02:44.912Z,14.98
2022-11-25T12:05:11.909Z,11.27
2022-11-25T12:07:44.854Z,9.48
2022-11-25T12:10:15.040Z,13.07
2022-11-25T12:12:50.024Z,8.07
2022-11-25T12:16:04.993Z,7.65
2022-11-25T12:18:50.653Z,10.07
2022-11-25T12:21:42.355Z,9.43
2022-11-25T12:24:27.103Z,9.05
2022-11-25T12:27:01.065Z,18.75
2022-11-25T12:29:45.365Z,17.73
2022-11-25T12:32:26.779Z,25.80
2022-11-25T12:35:02.777Z,17.17
2022-11-25T12:37:39.450Z,13.20
2022-11-25T12:40:17.304Z,14.65
2022-11-25T12:42:48.192Z,12.45
2022-11-25T12:45:22.531Z,16.02
2022-11-25T12:47:50.249Z,17.20
2022-11-25T12:50:29.765Z,13.35
2022-11-25T12:53:12.396Z,16.00
2022-11-25T12:55:40.710Z,16.55
2022-11-25T12:58:45.199Z,17.85
2022-11-25T13:01:44.163Z,15.77
2022-11-25T13:04:30.338Z,15.07
2022-11-25T13:07:16.247Z,11.40
2022-11-25T13:10:09.947Z,12.43
2022-11-25T13:13:08.226Z,17.55
2022-11-25T13:15:45.973Z,17.08
2022-11-25T13:18:17.639Z,16.42
2022-11-25T13:20:48.823Z,19.77
2022-11-25T13:23:18.777Z,11.02
2022-11-25T13:25:48.099Z,12.02
2022-11-25T13:28:28.636Z,15.80
2022-11-25T13:31:16.048Z,13.80
2022-11-25T13:33:43.118Z,16.85
2022-11-25T13:36:24.463Z,16.73
2022-11-25T13:38:51.385Z,16.45
2022-11-25T13:41:23.184Z,18.00
2022-11-25T13:44:04.002Z,29.67
2022-11-25T13:46:42.774Z,27.58
2022-11-25T13:49:41.752Z,16.30
2022-11-25T13:52:11.743Z,14.95
2022-11-25T13:54:40.595Z,16.85
2022-11-25T13:57:13.295Z,15.18
2022-11-25T14:02:28.482Z,11.75
2022-11-25T14:05:03.179Z,11.25
2022-11-25T14:07:48.263Z,11.60
2022-11-25T14:10:45.652Z,12.10
2022-11-25T14:13:43.996Z,9.13
2022-11-25T14:16:43.155Z,17.08
2022-11-25T14:19:50.826Z,13.68
2022-11-25T14:22:19.151Z,18.80
2022-11-25T14:24:50.416Z,14.65
2022-11-25T14:27:22.220Z,17.42
2022-11-25T14:29:58.373Z,17.63
2022-11-25T14:32:36.740Z,13.45
2022-11-25T14:35:10.139Z,11.43
2022-11-25T14:38:14.858Z,21.92
2022-11-25T14:40:54.407Z,14.10
2022-11-25T14:43:24.850Z,22.60
2022-11-25T14:46:20.396Z,16.98
2022-11-25T14:48:59.611Z,14.70
2022-11-25T14:51:38.382Z,18.58
2022-11-25T14:54:09.216Z,17.42
2022-11-25T14:56:37.190Z,24.27
2022-11-25T14:59:04.676Z,16.90
2022-11-25T15:01:34.442Z,13.68
2022-11-25T15:04:08.184Z,17.52
2022-11-25T15:06:37.340Z,14.27
2022-11-25T15:09:19.883Z,17.90
2022-11-25T15:11:48.138Z,13.60
2022-11-25T15:14:25.503Z,25.02
2022-11-25T15:16:53.232Z,17.00
2022-11-25T15:19:23.649Z,20.23
2022-11-25T15:22:22.964Z,16.10
2022-11-25T15:24:54.479Z,12.35
2022-11-25T15:27:27.384Z,28.88
2022-11-25T15:29:56.368Z,14.52
2022-11-25T15:32:29.816Z,16.85
2022-11-25T15:34:59.512Z,16.83
2022-11-25T15:37:26.884Z,15.98
2022-11-25T15:40:31.166Z,27.50
2022-11-25T15:43:00.338Z,21.55
2022-11-25T15:45:35.434Z,13.88
2022-11-25T15:48:03.490Z,17.30
2022-11-25T15:50:32.550Z,18.67
2022-11-25T15:53:00.358Z,21.73
2022-11-25T15:55:33.121Z,20.90
2022-11-25T15:58:07.672Z,24.95
2022-11-25T16:00:34.769Z,28.17
2022-11-25T16:03:04.044Z,21.50
2022-11-25T16:05:38.071Z,19.70
2022-11-25T16:08:27.567Z,29.67
2022-11-25T16:10:57.519Z,22.83
2022-11-25T16:13:29.726Z,23.08
2022-11-25T16:16:18.386Z,26.85
2022-11-25T16:19:12.363Z,19.02
2022-11-25T16:21:46.191Z,19.55
2022-11-25T16:24:13.291Z,23.60
2022-11-25T16:26:51.152Z,21.48
2022-11-25T16:29:26.437Z,22.75
2022-11-25T16:31:53.550Z,22.45
2022-11-25T16:34:24.069Z,28.90
2022-11-25T16:36:51.089Z,23.10
2022-11-25T16:39:18.103Z,28.67
2022-11-25T16:41:55.324Z,30.65
2022-11-25T16:44:24.709Z,21.80
2022-11-25T16:46:52.284Z,24.58
2022-11-25T16:49:21.161Z,26.80
2022-11-25T16:51:50.462Z,28.83
2022-11-25T16:54:21.583Z,28.75
2022-11-25T16:56:54.920Z,26.27
2022-11-25T16:59:35.714Z,36.35
2022-11-25T17:02:05.393Z,31.33
2022-11-25T17:04:32.603Z,38.60
2022-11-25T17:09:46.916Z,22.38
2022-11-25T17:12:17.965Z,22.48
2022-11-25T17:14:47.985Z,27.60
2022-11-25T17:17:24.562Z,28.20
2022-11-25T17:19:53.241Z,21.85
2022-11-25T17:22:23.511Z,16.10
2022-11-25T17:24:50.579Z,24.00
2022-11-25T17:27:27.077Z,19.90
2022-11-25T17:29:55.842Z,25.15
2022-11-25T17:32:23.453Z,32.35
2022-11-25T17:34:50.705Z,32.20
2022-11-25T17:37:20.366Z,22.85
2022-11-25T17:39:47.611Z,19.65
2022-11-25T17:42:17.127Z,17.65
2022-11-25T17:44:49.777Z,18.80
2022-11-25T17:47:20.209Z,19.58
2022-11-25T17:49:48.182Z,16.70
2022-11-25T17:52:15.407Z,20.38
2022-11-25T17:54:42.521Z,15.40
2022-11-25T17:57:17.480Z,14.30
2022-11-25T17:59:44.509Z,22.55
2022-11-25T18:02:19.658Z,14.57
2022-11-25T18:04:47.333Z,16.77
2022-11-25T18:07:14.678Z,20.33
2022-11-25T18:09:41.982Z,15.85
2022-11-25T18:12:28.649Z,20.60
2022-11-25T18:14:56.328Z,21.10
2022-11-25T18:17:23.327Z,14.13
2022-11-25T18:19:54.881Z,17.27
2022-11-25T18:22:23.890Z,12.93
2022-11-25T18:24:51.790Z,20.33
2022-11-25T18:27:26.755Z,27.80
2022-11-25T18:29:55.190Z,18.30
2022-11-25T18:32:23.585Z,13.68
2022-11-25T18:34:51.802Z,19.38
2022-11-25T18:37:18.817Z,20.05
2022-11-25T18:39:46.437Z,28.33
2022-11-25T18:42:34.077Z,20.02
2022-11-25T18:45:01.167Z,15.63
2022-11-25T18:47:28.185Z,16.15
2022-11-25T18:49:56.432Z,19.45
2022-11-25T18:52:24.770Z,26.48
2022-11-25T18:54:52.008Z,26.00
2022-11-25T18:57:19.165Z,21.08
2022-11-25T18:59:55.941Z,16.92
2022-11-25T19:02:27.246Z,23.20
2022-11-25T19:04:54.290Z,22.80
2022-11-25T19:07:21.372Z,23.10
2022-11-25T19:09:48.411Z,17.52
2022-11-25T19:12:20.120Z,17.00
2022-11-25T19:14:48.255Z,27.17
2022-11-25T19:17:20.457Z,25.95
2022-11-25T19:19:47.818Z,28.33
2022-11-25T19:22:16.173Z,18.40
2022-11-25T19:24:43.500Z,24.83
2022-11-25T19:27:17.868Z,26.27
2022-11-25T19:29:46.700Z,24.85
2022-11-25T19:32:21.696Z,21.45
2022-11-25T19:34:52.143Z,31.00
2022-11-25T19:37:21.531Z,22.13
2022-11-25T19:39:52.861Z,27.52
2022-11-25T19:42:19.951Z,17.60
2022-11-25T19:44:47.180Z,27.90
2022-11-25T19:47:25.710Z,17.27
2022-11-25T19:49:56.134Z,32.38
2022-11-25T19:52:37.592Z,30.00
2022-11-25T19:55:19.633Z,22.42
2022-11-25T19:57:47.864Z,24.13
2022-11-25T20:00:17.088Z,25.45
2022-11-25T20:02:46.537Z,22.27
2022-11-25T20:05:29.875Z,19.17
2022-11-25T20:07:56.928Z,22.92
2022-11-25T20:10:27.123Z,24.10
2022-11-25T20:12:55.624Z,23.00
2022-11-25T20:15:23.584Z,24.30
2022-11-25T20:17:53.518Z,20.73
2022-11-25T20:20:30.549Z,16.80
2022-11-25T20:23:02.994Z,15.52
2022-11-25T20:25:30.609Z,15.00
2022-11-25T20:27:57.568Z,22.90
2022-11-25T20:30:28.839Z,22.45
2022-11-25T20:32:55.797Z,18.88
2022-11-25T20:35:25.744Z,25.15
2022-11-25T20:37:57.809Z,21.02
2022-11-25T20:40:32.844Z,27.42
2022-11-25T20:43:00.221Z,19.55
2022-11-25T20:45:27.382Z,14.05
2022-11-25T20:47:54.519Z,11.43
2022-11-25T20:50:22.090Z,16.58
2022-11-25T20:52:50.227Z,17.08
2022-11-25T20:55:21.222Z,18.45
2022-11-25T20:57:48.325Z,18.40
2022-11-25T21:00:26.197Z,12.80
2022-11-25T21:02:54.922Z,13.25
2022-11-25T21:05:22.145Z,19.45
2022-11-25T21:07:50.533Z,14.63
2022-11-25T21:10:27.843Z,16.23
2022-11-25T21:12:56.197Z,11.25
2022-11-25T21:15:25.911Z,14.27
2022-11-25T21:17:53.064Z,15.27
2022-11-25T21:20:20.396Z,18.95
2022-11-25T21:22:51.635Z,13.55
2022-11-25T21:25:21.287Z,15.93
2022-11-25T21:27:50.293Z,14.07
2022-11-25T21:30:21.942Z,15.77
2022-11-25T21:32:53.384Z,14.73
2022-11-25T21:35:21.713Z,13.63
2022-11-25T21:37:48.705Z,14.88
2022-11-25T21:40:31.864Z,14.85
2022-11-25T21:43:00.236Z,13.40
2022-11-25T21:45:27.214Z,19.58
2022-11-25T21:47:54.319Z,17.63
2022-11-25T21:50:21.846Z,14.82
2022-11-25T21:52:49.027Z,15.43
2022-11-25T21:55:16.741Z,11.38
2022-11-25T21:57:43.948Z,15.00
2022-11-25T22:00:31.252Z,12.82
2022-11-25T22:02:58.398Z,14.40
2022-11-25T22:05:25.740Z,10.57
2022-11-25T22:07:54.896Z,11.27
2022-11-25T22:10:22.757Z,11.93
2022-11-25T22:12:50.016Z,10.30
2022-11-25T22:15:21.117Z,16.27
2022-11-25T22:17:51.203Z,13.55
2022-11-25T22:20:26.116Z,11.25
2022-11-25T22:22:53.495Z,8.18
2022-11-25T22:25:21.297Z,13.38
2022-11-25T22:27:48.985Z,8.02
2022-11-25T22:30:18.398Z,12.10
2022-11-25T22:32:47.540Z,16.95
2022-11-25T22:35:20.029Z,12.27
2022-11-25T22:37:53.505Z,14.07
2022-11-25T22:40:20.653Z,11.20
2022-11-25T22:42:50.104Z,7.40
2022-11-25T22:45:38.129Z,11.02
2022-11-25T22:48:06.386Z,11.35
2022-11-25T22:50:34.332Z,9.50
2022-11-25T22:53:01.561Z,10.40
2022-11-25T22:55:32.927Z,12.73
2022-11-25T22:58:01.336Z,12.20
2022-11-25T23:00:32.395Z,19.27
2022-11-25T23:03:01.190Z,9.13
2022-11-25T23:05:33.882Z,14.68
2022-11-25T23:08:25.681Z,13.48
2022-11-25T23:10:54.272Z,10.50
2022-11-25T23:13:21.557Z,12.55
2022-11-25T23:15:54.248Z,17.67
2022-11-25T23:18:40.200Z,9.88
2022-11-25T23:21:22.803Z,16.35
2022-11-25T23:23:50.482Z,18.88
2022-11-25T23:26:17.617Z,17.20
2022-11-25T23:28:44.793Z,18.73
2022-11-25T23:31:13.827Z,18.08
2022-11-25T23:33:44.119Z,20.60
2022-11-25T23:36:15.626Z,25.77
2022-11-25T23:38:53.592Z,23.88
2022-11-25T23:41:26.704Z,17.50
2022-11-25T23:43:54.140Z,22.42
2022-11-25T23:46:25.014Z,19.67
2022-11-25T23:48:56.444Z,18.52
2022-11-25T23:51:26.516Z,18.20
2022-11-25T23:53:54.746Z,16.85
2022-11-25T23:56:22.218Z,17.20
2022-11-25T23:58:51.836Z,17.95
